createdAt,value
2019-05-17T00:01:20.754Z,14.60
2019-05-17T00:03:53.011Z,14.56
2019-05-17T00:06:27.458Z,14.53
2019-05-17T00:08:58.719Z,14.49
2019-05-17T00:11:32.137Z,14.45
2019-05-17T00:14:06.172Z,14.40
2019-05-17T00:16:39.150Z,14.36
2019-05-17T00:19:11.309Z,14.33
2019-05-17T00:21:43.044Z,14.32
2019-05-17T00:24:18.317Z,14.31
2019-05-17T00:26:52.281Z,14.28
2019-05-17T00:29:26.442Z,14.26
2019-05-17T00:31:59.463Z,14.21
2019-05-17T00:34:32.575Z,14.17
2019-05-17T00:37:06.823Z,14.13
2019-05-17T00:39:38.214Z,14.10
2019-05-17T00:42:10.094Z,14.08
2019-05-17T00:44:41.905Z,14.07
2019-05-17T00:47:13.800Z,14.04
2019-05-17T00:49:46.447Z,13.99
2019-05-17T00:52:19.107Z,13.96
2019-05-17T00:54:52.095Z,13.95
2019-05-17T00:57:23.822Z,13.92
2019-05-17T00:59:56.512Z,13.89
2019-05-17T01:02:28.822Z,13.85
2019-05-17T01:05:00.026Z,13.81
2019-05-17T01:07:29.332Z,13.80
2019-05-17T01:10:01.126Z,13.81
2019-05-17T01:12:32.879Z,13.80
2019-05-17T01:15:07.315Z,13.77
2019-05-17T01:17:38.791Z,13.76
2019-05-17T01:20:11.904Z,13.73
2019-05-17T01:22:43.958Z,13.72
2019-05-17T01:25:17.137Z,13.69
2019-05-17T01:27:47.476Z,13.66
2019-05-17T01:30:19.713Z,13.63
2019-05-17T01:32:51.479Z,13.60
2019-05-17T01:35:23.315Z,13.56
2019-05-17T01:37:56.464Z,13.52
2019-05-17T01:40:28.414Z,13.47
2019-05-17T01:43:00.418Z,13.39
2019-05-17T01:45:32.173Z,13.34
2019-05-17T01:48:03.932Z,13.34
2019-05-17T01:50:37.335Z,13.31
2019-05-17T01:53:09.338Z,13.29
2019-05-17T01:55:41.114Z,13.25
2019-05-17T01:58:12.848Z,13.23
2019-05-17T02:00:46.549Z,13.21
2019-05-17T02:03:18.095Z,13.19
2019-05-17T02:05:50.318Z,13.20
2019-05-17T02:08:22.015Z,13.19
2019-05-17T02:10:53.709Z,13.19
2019-05-17T02:13:26.766Z,13.18
2019-05-17T02:15:58.657Z,13.14
2019-05-17T02:18:30.474Z,13.12
2019-05-17T02:21:03.488Z,13.11
2019-05-17T02:23:37.251Z,13.10
2019-05-17T02:26:08.881Z,13.10
2019-05-17T02:28:41.458Z,13.08
2019-05-17T02:31:14.055Z,13.09
2019-05-17T02:33:47.224Z,13.08
2019-05-17T02:36:22.608Z,13.06
2019-05-17T02:38:53.325Z,13.05
2019-05-17T02:41:25.109Z,13.02
2019-05-17T02:43:57.057Z,12.97
2019-05-17T02:46:29.501Z,12.88
2019-05-17T02:49:08.170Z,12.80
2019-05-17T02:51:43.111Z,12.74
2019-05-17T02:54:15.208Z,12.67
2019-05-17T02:56:47.349Z,12.67
2019-05-17T02:59:19.619Z,12.66
2019-05-17T03:01:52.663Z,12.63
2019-05-17T03:04:24.720Z,12.64
2019-05-17T03:06:57.619Z,12.64
2019-05-17T03:09:29.414Z,12.64
2019-05-17T03:12:03.313Z,12.62
2019-05-17T03:14:35.173Z,12.62
2019-05-17T03:17:06.850Z,12.62
2019-05-17T03:19:39.165Z,12.62
2019-05-17T03:22:13.117Z,12.61
2019-05-17T03:24:45.013Z,12.62
2019-05-17T03:27:17.121Z,12.61
2019-05-17T03:29:48.829Z,12.59
2019-05-17T03:32:26.422Z,12.58
2019-05-17T03:34:56.717Z,12.57
2019-05-17T03:37:37.243Z,12.56
2019-05-17T03:40:23.523Z,12.55
2019-05-17T03:42:43.090Z,12.55
2019-05-17T03:45:15.085Z,12.54
2019-05-17T03:47:46.832Z,12.51
2019-05-17T03:50:22.489Z,12.47
2019-05-17T03:52:53.820Z,12.43
2019-05-17T03:55:25.501Z,12.37
2019-05-17T03:57:58.415Z,12.33
2019-05-17T04:00:30.112Z,12.29
2019-05-17T04:03:03.032Z,12.29
2019-05-17T04:05:35.113Z,12.29
2019-05-17T04:08:06.997Z,12.29
2019-05-17T04:10:42.386Z,12.33
2019-05-17T04:13:13.327Z,12.39
2019-05-17T04:15:45.381Z,12.45
2019-05-17T04:18:17.974Z,12.50
2019-05-17T04:20:52.551Z,12.52
2019-05-17T04:23:23.480Z,12.48
2019-05-17T04:25:55.775Z,12.45
2019-05-17T04:28:27.792Z,12.46
2019-05-17T04:31:02.556Z,12.48
2019-05-17T04:33:33.893Z,12.51
2019-05-17T04:36:05.796Z,12.53
2019-05-17T04:38:37.463Z,12.55
2019-05-17T04:41:13.092Z,12.55
2019-05-17T04:43:43.215Z,12.54
2019-05-17T04:46:15.128Z,12.55
2019-05-17T04:48:46.934Z,12.58
2019-05-17T04:51:18.700Z,12.62
2019-05-17T04:53:52.998Z,12.65
2019-05-17T04:56:24.678Z,12.67
2019-05-17T04:58:56.481Z,12.68
2019-05-17T05:01:28.360Z,12.70
2019-05-17T05:04:03.103Z,12.73
2019-05-17T05:06:37.971Z,12.73
2019-05-17T05:09:12.455Z,12.76
2019-05-17T05:11:56.172Z,12.78
2019-05-17T05:14:17.288Z,12.81
2019-05-17T05:16:49.016Z,12.83
2019-05-17T05:19:22.334Z,12.85
2019-05-17T05:21:54.290Z,12.87
2019-05-17T05:24:25.998Z,12.90
2019-05-17T05:26:58.326Z,12.92
2019-05-17T05:29:32.113Z,12.95
2019-05-17T05:32:03.719Z,12.98
2019-05-17T05:34:35.476Z,13.04
2019-05-17T05:37:07.415Z,13.10
2019-05-17T05:39:41.293Z,13.15
2019-05-17T05:42:14.063Z,13.22
2019-05-17T05:44:46.050Z,13.24
2019-05-17T05:47:17.889Z,13.30
2019-05-17T05:49:51.910Z,13.37
2019-05-17T05:52:23.534Z,13.44
2019-05-17T05:54:55.431Z,13.51
2019-05-17T05:57:27.782Z,13.60
2019-05-17T06:00:02.023Z,13.68
2019-05-17T06:02:33.066Z,13.78
2019-05-17T06:05:05.300Z,13.87
2019-05-17T06:07:37.224Z,13.96
2019-05-17T06:10:12.608Z,14.05
2019-05-17T06:12:44.499Z,14.13
2019-05-17T06:15:17.143Z,14.21
2019-05-17T06:17:48.823Z,14.32
2019-05-17T06:20:22.439Z,14.42
2019-05-17T06:22:54.420Z,14.57
2019-05-17T06:25:26.407Z,14.81
2019-05-17T06:28:01.702Z,15.10
2019-05-17T06:30:33.600Z,15.36
2019-05-17T06:33:05.400Z,15.63
2019-05-17T06:35:37.142Z,15.90
2019-05-17T06:38:08.997Z,16.14
2019-05-17T06:40:42.016Z,16.31
2019-05-17T06:43:14.827Z,16.50
2019-05-17T06:45:46.600Z,16.70
2019-05-17T06:48:19.486Z,16.86
2019-05-17T06:50:52.067Z,17.05
2019-05-17T06:53:23.929Z,17.23
2019-05-17T06:55:55.673Z,17.40
2019-05-17T06:58:28.116Z,17.53
2019-05-17T07:01:00.067Z,17.63
2019-05-17T07:03:31.863Z,17.75
2019-05-17T07:06:05.446Z,17.88
2019-05-17T07:08:37.218Z,17.92
2019-05-17T07:11:09.775Z,17.97
2019-05-17T07:13:42.589Z,18.07
2019-05-17T07:16:14.430Z,18.20
2019-05-17T07:18:46.229Z,18.34
2019-05-17T07:21:20.393Z,18.46
2019-05-17T07:23:52.056Z,18.56
2019-05-17T07:26:23.791Z,18.63
2019-05-17T07:28:56.197Z,18.69
2019-05-17T07:31:29.791Z,18.75
2019-05-17T07:34:01.453Z,18.84
2019-05-17T07:36:33.329Z,18.93
2019-05-17T07:39:05.868Z,19.02
2019-05-17T07:41:39.930Z,19.11
2019-05-17T07:44:13.330Z,19.17
2019-05-17T07:46:46.527Z,19.21
2019-05-17T07:49:20.039Z,19.24
2019-05-17T07:51:51.876Z,19.28
2019-05-17T07:54:23.682Z,19.30
2019-05-17T07:56:55.528Z,19.25
2019-05-17T07:59:29.342Z,19.20
2019-05-17T08:02:01.573Z,19.16
2019-05-17T08:04:34.251Z,19.13
2019-05-17T08:07:07.621Z,19.05
2019-05-17T08:09:41.726Z,19.00
2019-05-17T08:12:13.671Z,19.01
2019-05-17T08:14:45.436Z,19.05
2019-05-17T08:17:19.989Z,19.09
2019-05-17T08:19:51.821Z,19.09
2019-05-17T08:22:24.178Z,19.07
2019-05-17T08:24:56.565Z,19.08
2019-05-17T08:27:29.718Z,19.13
2019-05-17T08:30:01.829Z,19.19
2019-05-17T08:32:33.747Z,19.22
2019-05-17T08:35:05.617Z,19.27
2019-05-17T08:37:57.115Z,19.35
2019-05-17T08:40:30.562Z,19.55
2019-05-17T08:43:02.543Z,19.56
2019-05-17T08:45:34.419Z,19.56
2019-05-17T08:48:09.571Z,19.56
2019-05-17T08:50:41.859Z,19.59
2019-05-17T08:53:14.482Z,19.60
2019-05-17T08:55:46.405Z,19.59
2019-05-17T08:58:21.536Z,19.62
2019-05-17T09:00:53.414Z,19.62
2019-05-17T09:03:25.275Z,19.65
2019-05-17T09:05:57.096Z,19.65
2019-05-17T09:08:29.855Z,19.65
2019-05-17T09:11:01.723Z,19.73
2019-05-17T09:13:33.932Z,19.85
2019-05-17T09:16:05.814Z,19.97
2019-05-17T09:18:39.464Z,20.08
2019-05-17T09:21:11.269Z,20.17
2019-05-17T09:23:44.004Z,20.28
2019-05-17T09:26:15.922Z,20.43
2019-05-17T09:28:49.809Z,20.53
2019-05-17T09:31:21.120Z,20.63
2019-05-17T09:33:52.863Z,20.68
2019-05-17T09:36:24.573Z,20.74
2019-05-17T09:38:57.017Z,20.76
2019-05-17T09:41:29.374Z,20.73
2019-05-17T09:44:11.673Z,20.75
2019-05-17T09:46:35.326Z,20.76
2019-05-17T09:49:10.179Z,20.79
2019-05-17T09:51:40.983Z,20.84
2019-05-17T09:54:13.763Z,20.91
2019-05-17T09:56:45.711Z,20.99
2019-05-17T09:59:17.705Z,21.09
2019-05-17T10:01:49.597Z,21.15
2019-05-17T10:04:21.521Z,21.15
2019-05-17T10:06:53.352Z,21.14
2019-05-17T10:09:25.811Z,21.15
2019-05-17T10:11:59.886Z,21.18
2019-05-17T10:14:31.491Z,21.20
2019-05-17T10:17:03.737Z,21.26
2019-05-17T10:19:35.494Z,21.30
2019-05-17T10:22:10.178Z,21.35
2019-05-17T10:24:42.653Z,21.40
2019-05-17T10:27:14.815Z,21.45
2019-05-17T10:29:46.717Z,21.47
2019-05-17T10:32:20.472Z,21.49
2019-05-17T10:34:51.880Z,21.52
2019-05-17T10:37:23.656Z,21.60
2019-05-17T10:39:55.393Z,21.64
2019-05-17T10:42:30.560Z,21.62
2019-05-17T10:45:03.198Z,21.61
2019-05-17T10:47:34.938Z,21.59
2019-05-17T10:50:06.753Z,21.60
2019-05-17T10:52:40.890Z,21.64
2019-05-17T10:55:12.576Z,21.69
2019-05-17T10:57:45.182Z,21.72
2019-05-17T11:00:19.692Z,21.78
2019-05-17T11:02:51.672Z,21.83
2019-05-17T11:05:23.974Z,21.87
2019-05-17T11:07:55.767Z,21.92
2019-05-17T11:10:28.037Z,21.95
2019-05-17T11:13:00.998Z,21.99
2019-05-17T11:15:32.970Z,22.04
2019-05-17T11:18:04.753Z,22.07
2019-05-17T11:20:37.402Z,22.09
2019-05-17T11:23:09.557Z,22.11
2019-05-17T11:25:45.875Z,22.15
2019-05-17T11:28:16.012Z,22.16
2019-05-17T11:30:48.338Z,22.17
2019-05-17T11:33:20.287Z,22.19
2019-05-17T11:35:52.519Z,22.20
2019-05-17T11:38:24.311Z,22.22
2019-05-17T11:40:56.162Z,22.25
2019-05-17T11:43:28.582Z,22.26
2019-05-17T11:46:00.629Z,22.28
2019-05-17T11:48:32.496Z,22.31
2019-05-17T11:51:04.569Z,22.35
2019-05-17T11:53:36.374Z,22.38
2019-05-17T11:56:08.105Z,22.43
2019-05-17T11:58:40.495Z,22.44
2019-05-17T12:01:12.366Z,22.45
2019-05-17T12:03:44.217Z,22.45
2019-05-17T12:06:16.457Z,22.49
2019-05-17T12:08:48.343Z,22.56
2019-05-17T12:11:20.463Z,22.60
2019-05-17T12:13:52.792Z,22.66
2019-05-17T12:16:24.834Z,22.70
2019-05-17T12:18:56.772Z,22.72
2019-05-17T12:21:28.503Z,22.77
2019-05-17T12:24:00.631Z,22.78
2019-05-17T12:26:33.465Z,22.80
2019-05-17T12:29:06.248Z,22.82
2019-05-17T12:31:37.996Z,22.86
2019-05-17T12:34:09.888Z,22.94
2019-05-17T12:36:41.659Z,23.02
2019-05-17T12:39:13.893Z,23.10
2019-05-17T12:41:46.474Z,23.18
2019-05-17T12:44:19.226Z,23.26
2019-05-17T12:46:51.794Z,23.40
2019-05-17T12:49:23.891Z,23.55
2019-05-17T12:51:56.011Z,23.68
2019-05-17T12:54:27.972Z,23.83
2019-05-17T12:57:00.200Z,23.94
2019-05-17T12:59:33.202Z,24.04
2019-05-17T13:02:05.649Z,24.14
2019-05-17T13:04:37.817Z,24.23
2019-05-17T13:07:10.055Z,24.33
2019-05-17T13:09:41.939Z,24.44
2019-05-17T13:12:14.065Z,24.51
2019-05-17T13:14:46.566Z,24.56
2019-05-17T13:17:18.641Z,24.58
2019-05-17T13:19:50.731Z,24.59
2019-05-17T13:22:22.704Z,24.61
2019-05-17T13:24:54.877Z,24.62
2019-05-17T13:27:26.696Z,24.59
2019-05-17T13:29:59.245Z,24.56
2019-05-17T13:32:31.085Z,24.59
2019-05-17T13:35:04.222Z,24.64
2019-05-17T13:37:35.919Z,24.71
2019-05-17T13:40:07.956Z,24.76
2019-05-17T13:42:41.463Z,24.82
2019-05-17T13:45:14.398Z,24.84
2019-05-17T13:47:46.103Z,24.86
2019-05-17T13:50:20.964Z,24.87
2019-05-17T13:52:52.747Z,24.89
2019-05-17T13:55:24.594Z,24.95
2019-05-17T13:57:57.879Z,25.05
2019-05-17T14:00:30.540Z,25.13
2019-05-17T14:03:02.301Z,25.19
2019-05-17T14:05:34.065Z,25.25
2019-05-17T14:08:05.890Z,25.30
2019-05-17T14:10:37.756Z,25.38
2019-05-17T14:13:09.485Z,25.48
2019-05-17T14:15:41.457Z,25.55
2019-05-17T14:18:14.123Z,25.58
2019-05-17T14:20:46.146Z,25.55
2019-05-17T14:23:17.907Z,25.54
2019-05-17T14:25:50.082Z,25.57
2019-05-17T14:28:21.851Z,25.62
2019-05-17T14:30:53.542Z,25.67
2019-05-17T14:33:25.694Z,25.71
2019-05-17T14:35:57.780Z,25.76
2019-05-17T14:38:29.728Z,25.76
2019-05-17T14:41:06.735Z,25.73
2019-05-17T14:43:34.987Z,25.72
2019-05-17T14:46:06.717Z,25.72
2019-05-17T14:48:39.015Z,25.69
2019-05-17T14:51:10.722Z,25.64
2019-05-17T14:53:44.068Z,25.61
2019-05-17T14:56:15.843Z,25.59
2019-05-17T14:58:47.908Z,25.58
2019-05-17T15:01:19.661Z,25.54
2019-05-17T15:03:51.800Z,25.51
2019-05-17T15:06:23.584Z,25.50
2019-05-17T15:08:55.415Z,25.49
2019-05-17T15:11:27.145Z,25.45
2019-05-17T15:13:58.931Z,25.40
2019-05-17T15:16:30.722Z,25.34
2019-05-17T15:19:03.247Z,25.25
2019-05-17T15:21:34.955Z,25.18
2019-05-17T15:24:06.718Z,25.13
2019-05-17T15:26:38.892Z,25.09
2019-05-17T15:29:11.013Z,25.07
2019-05-17T15:31:42.921Z,25.04
2019-05-17T15:34:15.239Z,25.06
2019-05-17T15:36:47.337Z,25.12
2019-05-17T15:39:19.463Z,25.16
2019-05-17T15:41:51.238Z,25.25
2019-05-17T15:44:23.002Z,25.28
2019-05-17T15:46:54.707Z,25.31
2019-05-17T15:49:26.907Z,25.27
2019-05-17T15:51:58.744Z,25.31
2019-05-17T15:54:30.458Z,25.35
2019-05-17T15:57:02.308Z,25.37
2019-05-17T15:59:34.024Z,25.38
2019-05-17T16:02:05.902Z,25.41
2019-05-17T16:04:38.534Z,25.42
2019-05-17T16:07:10.618Z,25.44
2019-05-17T16:09:42.553Z,25.44
2019-05-17T16:12:14.261Z,25.47
2019-05-17T16:14:45.931Z,25.48
2019-05-17T16:17:17.654Z,25.50
2019-05-17T16:19:49.740Z,25.51
2019-05-17T16:22:21.510Z,25.52
2019-05-17T16:24:53.274Z,25.55
2019-05-17T16:27:25.074Z,25.55
2019-05-17T16:29:56.879Z,25.55
2019-05-17T16:32:28.635Z,25.58
2019-05-17T16:35:00.872Z,25.62
2019-05-17T16:37:32.512Z,25.65
2019-05-17T16:40:04.757Z,25.62
2019-05-17T16:42:36.474Z,25.57
2019-05-17T16:45:09.965Z,25.52
2019-05-17T16:47:41.722Z,25.50
2019-05-17T16:50:14.744Z,25.51
2019-05-17T16:52:46.415Z,25.48
2019-05-17T16:55:18.382Z,25.33
2019-05-17T16:57:50.169Z,25.19
2019-05-17T17:00:37.010Z,25.11
2019-05-17T17:03:10.236Z,25.07
2019-05-17T17:05:42.087Z,25.06
2019-05-17T17:08:18.277Z,25.04
2019-05-17T17:10:49.994Z,25.08
2019-05-17T17:13:32.837Z,25.08
2019-05-17T17:15:55.670Z,25.08
2019-05-17T17:18:27.491Z,25.06
2019-05-17T17:20:59.388Z,24.97
2019-05-17T17:23:31.130Z,24.89
2019-05-17T17:26:03.208Z,24.84
2019-05-17T17:28:34.975Z,24.80
2019-05-17T17:31:08.803Z,24.76
2019-05-17T17:33:40.568Z,24.71
2019-05-17T17:36:12.446Z,24.65
2019-05-17T17:38:44.171Z,24.59
2019-05-17T17:41:15.990Z,24.50
2019-05-17T17:43:58.113Z,24.41
2019-05-17T17:46:21.349Z,24.34
2019-05-17T17:48:53.472Z,24.23
2019-05-17T17:51:25.665Z,24.16
2019-05-17T17:53:57.358Z,24.05
2019-05-17T17:56:29.263Z,23.93
2019-05-17T17:59:00.973Z,23.80
2019-05-17T18:01:32.703Z,23.62
2019-05-17T18:04:04.530Z,23.37
2019-05-17T18:06:36.471Z,23.16
2019-05-17T18:09:13.842Z,23.00
2019-05-17T18:11:45.768Z,22.87
2019-05-17T18:14:17.548Z,22.79
2019-05-17T18:16:49.334Z,22.75
2019-05-17T18:19:21.425Z,22.70
2019-05-17T18:21:53.472Z,22.64
2019-05-17T18:24:25.524Z,22.61
2019-05-17T18:26:57.303Z,22.58
2019-05-17T18:29:29.227Z,22.55
2019-05-17T18:32:01.016Z,22.49
2019-05-17T18:34:32.975Z,22.45
2019-05-17T18:37:04.742Z,22.42
2019-05-17T18:39:36.652Z,22.38
2019-05-17T18:42:08.372Z,22.35
2019-05-17T18:44:40.152Z,22.27
2019-05-17T18:47:11.924Z,22.19
2019-05-17T18:49:43.711Z,22.14
2019-05-17T18:52:15.536Z,22.13
2019-05-17T18:54:47.451Z,22.12
2019-05-17T18:57:19.322Z,22.10
2019-05-17T18:59:51.249Z,22.10
2019-05-17T19:02:23.104Z,22.10
2019-05-17T19:04:55.454Z,22.09
2019-05-17T19:07:27.661Z,22.04
2019-05-17T19:09:59.685Z,21.94
2019-05-17T19:12:31.546Z,21.86
2019-05-17T19:15:03.282Z,21.78
2019-05-17T19:17:38.024Z,21.74
2019-05-17T19:20:10.304Z,21.67
2019-05-17T19:22:42.052Z,21.61
2019-05-17T19:25:16.023Z,21.58
2019-05-17T19:27:48.143Z,21.54
2019-05-17T19:30:20.230Z,21.49
2019-05-17T19:32:52.076Z,21.44
2019-05-17T19:35:23.862Z,21.40
2019-05-17T19:37:55.860Z,21.39
2019-05-17T19:40:28.366Z,21.34
2019-05-17T19:43:00.246Z,21.31
2019-05-17T19:45:32.075Z,21.26
2019-05-17T19:48:03.972Z,21.18
2019-05-17T19:50:35.797Z,21.12
2019-05-17T19:53:07.601Z,21.05
2019-05-17T19:55:39.710Z,20.96
2019-05-17T19:58:11.564Z,20.89
2019-05-17T20:00:43.946Z,20.81
2019-05-17T20:03:15.942Z,20.73
2019-05-17T20:05:47.826Z,20.65
2019-05-17T20:08:20.017Z,20.58
2019-05-17T20:10:52.359Z,20.52
2019-05-17T20:13:24.116Z,20.44
2019-05-17T20:15:56.227Z,20.38
2019-05-17T20:18:28.018Z,20.33
2019-05-17T20:20:59.858Z,20.32
2019-05-17T20:23:31.692Z,20.29
2019-05-17T20:26:03.944Z,20.26
2019-05-17T20:28:35.838Z,20.20
2019-05-17T20:31:07.881Z,20.14
2019-05-17T20:33:39.886Z,20.08
2019-05-17T20:36:12.081Z,20.00
2019-05-17T20:38:43.846Z,19.92
2019-05-17T20:41:15.764Z,19.86
2019-05-17T20:43:47.520Z,19.85
2019-05-17T20:46:19.736Z,19.80
2019-05-17T20:48:51.542Z,19.74
2019-05-17T20:51:23.346Z,19.70
2019-05-17T20:53:55.453Z,19.67
2019-05-17T20:56:33.063Z,19.61
2019-05-17T20:59:00.804Z,19.55
2019-05-17T21:01:32.729Z,19.49
2019-05-17T21:04:04.501Z,19.47
2019-05-17T21:06:36.456Z,19.46
2019-05-17T21:09:08.998Z,19.47
2019-05-17T21:11:40.918Z,19.43
2019-05-17T21:14:12.763Z,19.43
2019-05-17T21:16:44.578Z,19.41
2019-05-17T21:19:16.559Z,19.36
2019-05-17T21:21:48.291Z,19.35
2019-05-17T21:24:20.129Z,19.33
2019-05-17T21:26:52.423Z,19.33
2019-05-17T21:29:24.422Z,19.31
2019-05-17T21:31:56.213Z,19.29
2019-05-17T21:34:27.991Z,19.30
2019-05-17T21:36:59.771Z,19.31
2019-05-17T21:39:32.251Z,19.34
2019-05-17T21:42:05.305Z,19.32
2019-05-17T21:44:37.301Z,19.32
2019-05-17T21:47:09.364Z,19.32
2019-05-17T21:49:41.529Z,19.32
2019-05-17T21:52:13.346Z,19.26
2019-05-17T21:54:45.090Z,19.19
2019-05-17T21:58:21.315Z,19.12
2019-05-17T22:01:20.207Z,19.04
2019-05-17T22:03:52.101Z,19.01
2019-05-17T22:06:24.356Z,18.96
2019-05-17T22:08:56.433Z,18.98
2019-05-17T22:11:28.141Z,18.97
2019-05-17T22:14:00.021Z,18.95
2019-05-17T22:16:31.765Z,18.94
2019-05-17T22:19:03.714Z,18.94
2019-05-17T22:21:35.557Z,18.93
2019-05-17T22:24:07.302Z,18.92
2019-05-17T22:26:39.090Z,18.89
2019-05-17T22:29:10.921Z,18.86
2019-05-17T22:31:42.744Z,18.79
2019-05-17T22:34:14.992Z,18.75
2019-05-17T22:36:46.714Z,18.72
2019-05-17T22:39:18.526Z,18.70
2019-05-17T22:41:50.370Z,18.67
2019-05-17T22:44:22.308Z,18.66
2019-05-17T22:46:54.054Z,18.61
2019-05-17T22:49:25.919Z,18.57
2019-05-17T22:51:58.216Z,18.54
2019-05-17T22:54:30.121Z,18.52
2019-05-17T22:57:02.049Z,18.52
2019-05-17T22:59:34.408Z,18.51
2019-05-17T23:02:06.250Z,18.49
2019-05-17T23:04:38.327Z,18.49
2019-05-17T23:07:10.126Z,18.49
2019-05-17T23:09:42.253Z,18.46
2019-05-17T23:12:14.226Z,18.44
2019-05-17T23:14:46.619Z,18.40
2019-05-17T23:17:18.401Z,18.37
2019-05-17T23:19:50.096Z,18.32
2019-05-17T23:22:21.979Z,18.26
2019-05-17T23:24:53.890Z,18.23
2019-05-17T23:27:26.038Z,18.19
2019-05-17T23:29:57.792Z,18.17
2019-05-17T23:32:42.587Z,18.18
2019-05-17T23:35:12.251Z,18.19
2019-05-17T23:37:44.393Z,18.19
2019-05-17T23:40:16.314Z,18.13
2019-05-17T23:42:47.990Z,18.08
2019-05-17T23:45:19.771Z,18.06
2019-05-17T23:47:53.057Z,18.07
2019-05-17T23:50:25.130Z,18.03
2019-05-17T23:52:57.542Z,18.01
2019-05-17T23:55:29.463Z,17.96
2019-05-17T23:58:01.576Z,17.93
